Date,TemperatureHighF,TemperatureAvgF,TemperatureLowF,DewpointHighF,DewpointAvgF,DewpointLowF,HumidityHigh,HumidityAvg,HumidityLow,PressureMaxIn,PressureMinIn,WindSpeedMaxMPH,WindSpeedAvgMPH,GustSpeedMaxMPH,PrecipitationSumIn
2013-5-1,80,65,48,54,47,41,92,58,25,30.32,30.18,4,1,6,0.00
2013-5-2,81,68,51,52,44,35,82,47,23,30.35,30.23,6,2,8,0.00
2013-5-3,74,64,53,49,40,31,74,45,21,30.32,30.19,7,4,11,0.00
2013-5-4,73,57,46,42,39,35,82,56,26,30.25,30.20,3,0,7,0.00
2013-5-5,81,66,50,52,42,33,83,48,18,30.13,30.00,3,1,5,0.00
2013-5-6,80,66,50,47,39,27,77,41,16,30.09,29.93,4,2,7,0.00
2013-5-7,82,67,49,51,42,28,75,45,14,30.03,29.93,5,1,6,0.00
2013-5-8,84,67,51,61,50,43,95,62,25,30.02,29.88,4,1,7,0.30
2013-5-9,77,66,57,61,56,46,97,74,34,29.90,29.75,6,1,14,0.16
2013-5-10,67,61,56,59,55,50,96,79,56,29.91,29.68,5,2,13,0.01
2013-5-11,62,56,50,60,53,45,96,88,76,29.67,29.51,10,3,13,0.35
2013-5-12,53,48,39,46,38,26,89,69,35,29.66,29.54,15,7,18,0.06
2013-5-13,52,44,38,36,31,28,74,62,41,29.97,29.66,10,5,14,0.00
2013-5-14,59,47,33,35,30,24,92,57,26,30.06,29.93,4,1,13,0.00
2013-5-15,63,45,33,48,34,28,84,68,31,29.95,29.44,6,1,13,0.00
2013-5-16,69,58,50,47,41,35,80,55,29,29.88,29.52,9,4,16,0.00
2013-5-17,70,58,44,44,38,27,82,52,20,30.13,29.88,3,1,11,0.00
2013-5-18,73,59,43,45,38,30,88,52,21,30.22,30.12,5,1,5,0.00
2013-5-19,64,57,46,58,50,42,94,77,59,30.16,29.96,4,1,6,0.03
2013-5-20,74,65,56,61,58,55,96,79,55,29.96,29.87,3,1,6,0.00
2013-5-21,65,60,57,60,56,54,96,88,71,29.91,29.70,10,3,13,0.50
2013-5-22,77,66,56,67,62,55,96,88,68,29.76,29.52,9,1,9,0.21
2013-5-23,76,66,51,67,61,47,96,83,53,29.75,29.58,8,4,8,0.34
2013-5-24,54,48,43,47,41,36,94,79,54,30.04,29.75,8,5,17,0.30
2013-5-25,55,49,46,43,37,34,87,63,46,30.07,30.00,10,5,17,0.01
2013-5-26,64,52,46,43,38,30,86,63,28,30.01,29.93,9,4,17,0.08
2013-5-27,69,58,47,44,35,30,64,44,25,30.13,30.01,5,1,17,0.00
2013-5-28,73,60,42,53,42,33,87,55,26,30.12,29.94,5,1,17,0.00
2013-5-29,78,67,56,66,59,45,96,77,51,29.93,29.75,9,3,17,0.21
2013-5-30,85,74,63,66,64,61,93,72,50,29.99,29.86,5,3,17,0.00
2013-5-31,90,79,68,69,63,60,92,60,37,29.96,29.80,9,4,17,0.15